Keeseville, New York
Current Conditions -  °F | °C
As of 5:53 AM on Wednesday 22 Oct 2014 (Local Time) from KPBG Reporting Station
Overcast Overcast  
Wind Chill: 39°   Ceiling: 1000
Heat Index: 44°   Visibility: 10mi
Dew Point: 42°   Wind: 9mph
Humidity: 93%   Direction: 340°NNW
Pressure: 30.15"   Gusts: NA
Location:  44.5°N, 73.48°W
Report Text: KPBG 220953Z AUTO 34008KT 10SM OVC010 07/06 A3015 RMK AO2 SLP212 T00670056
Loading
Personal Weather Stations






























Interactive Weather Map
Tropical Storm Tracking
New forecast layout! Learn more

10-Day Weather Forecast

Advertisements
Track Severe Weather on mobile